Darstellungsparameter: Aktuell verwendete Einstellungen:
Skalierung der Graphiken ... ?
xyx+y,   Skalierungsfaktor:      Skalierung: Modus: x, Faktor: 1
Darstellungszeitraum ... ?
Vom - - bis: - -   Zeitraum: 17.04.2022 - 17.04.2022
Min/Max/Avg-Anzeige ... ?
Zeige MMA aktuell
Zeige MMA Monat
Zeige MMA alles
Zeige --A aktuell
Zeige --A Monat
Zeige --A alles
Keine MMA-Anzeige
MMA:
Average (ber die Originaldaten)
MMA-Basis: 17.04.2022 - 17.04.2022
Quicknavigation für Darstellung... ?
Tage:      1T, 2T, 3T, 5T -1T -2T -3T -5T +1T +2T +3T +5T
Wochen: 1W, 2W, 3W -1W -2W -3W +1W +2W +3W
Monate: 1M, 3M, 6M -1M -3M -6M +1M +3M +6M
Jahre:    1J, 3J, 5J, 10J -1J -3J -5J -10J +1J +3J +5J +10J
Nutze für die Darstellung ... ?
Originaldaten oder Mittelwerte auf ...
Stundenbasis Tagesbasis Wochenbasis
Monatsbasis Jahresbasis      Datenbasis: Original-Daten
Darstellen als:
Statistik (Auto) Statistik J:M      Darstellung:
Zur Graphik,    zurück zur Übersicht aller Sensoren.
 
Tabellarische Datenbersicht: ?
 
Sensor: Nr:Datum:Temp:Abs-Feuchte:Windchill:Wind:
Aussen-T/F 1 17-04-2022 00:00:00 5.7 C 4.91 g/m*3 5.7 C 4.8 km/h
2 17-04-2022 00:05:00 5.7 C 4.98 g/m*3 5.7 C 3.2 km/h
3 17-04-2022 00:10:00 5.6 C 4.88 g/m*3 5.6 C 0 km/h
4 17-04-2022 00:15:00 5.6 C 4.88 g/m*3 5.6 C 3.2 km/h
5 17-04-2022 00:20:00 5.6 C 4.95 g/m*3 4.29 C 6.4 km/h
6 17-04-2022 00:25:00 5.6 C 5.02 g/m*3 5.6 C 3.2 km/h
7 17-04-2022 00:30:00 5.5 C 4.92 g/m*3 5.5 C 3.2 km/h
8 17-04-2022 00:35:00 5.7 C 4.91 g/m*3 3.56 C 9.7 km/h
9 17-04-2022 00:40:00 5.8 C 4.94 g/m*3 5.8 C 4.8 km/h
10 17-04-2022 00:45:00 5.9 C 4.98 g/m*3 5.9 C 3.2 km/h
11 17-04-2022 00:50:00 5.9 C 4.98 g/m*3 5.9 C 3.2 km/h
12 17-04-2022 00:55:00 5.9 C 4.98 g/m*3 5.9 C 1.6 km/h
13 17-04-2022 01:00:00 5.8 C 4.87 g/m*3 4.52 C 6.4 km/h
14 17-04-2022 01:05:00 5.9 C 4.83 g/m*3 5.9 C 4.8 km/h
15 17-04-2022 01:10:00 6 C 4.94 g/m*3 6 C 3.2 km/h
16 17-04-2022 01:15:00 6 C 5.01 g/m*3 6 C 1.6 km/h
17 17-04-2022 01:20:00 5.8 C 4.94 g/m*3 5.8 C 1.6 km/h
18 17-04-2022 01:25:00 5.7 C 4.98 g/m*3 5.7 C 1.6 km/h
19 17-04-2022 01:30:00 5.5 C 4.92 g/m*3 5.5 C 3.2 km/h
20 17-04-2022 01:35:00 5.3 C 4.92 g/m*3 5.3 C 4.8 km/h
21 17-04-2022 01:40:00 5.1 C 4.92 g/m*3 5.1 C 3.2 km/h
22 17-04-2022 01:45:00 4.8 C 4.83 g/m*3 4.8 C 3.2 km/h
23 17-04-2022 01:50:00 4.7 C 4.93 g/m*3 3.25 C 6.4 km/h
24 17-04-2022 01:55:00 4.5 C 4.86 g/m*3 3.02 C 6.4 km/h
25 17-04-2022 02:00:00 4.4 C 4.9 g/m*3 4.4 C 3.2 km/h
Sensor: Nr:Datum:Temp:Abs-Feuchte:Windchill:Wind:
Aussen-T/F 26 17-04-2022 02:05:00 4.3 C 4.93 g/m*3 4.3 C 3.2 km/h
27 17-04-2022 02:10:00 4.3 C 4.93 g/m*3 4.3 C 1.6 km/h
28 17-04-2022 02:15:00 4.2 C 4.96 g/m*3 4.2 C 0 km/h
29 17-04-2022 02:20:00 4 C 4.9 g/m*3 4 C 1.6 km/h
30 17-04-2022 02:25:00 3.8 C 4.83 g/m*3 3.8 C 1.6 km/h
31 17-04-2022 02:30:00 3.7 C 4.86 g/m*3 3.7 C 1.6 km/h
32 17-04-2022 02:35:00 3.6 C 4.89 g/m*3 3.6 C 1.6 km/h
33 17-04-2022 02:40:00 3.4 C 4.83 g/m*3 3.4 C 0 km/h
34 17-04-2022 02:45:00 3.3 C 4.85 g/m*3 3.3 C 0 km/h
35 17-04-2022 02:50:00 3.2 C 4.82 g/m*3 3.2 C 0 km/h
36 17-04-2022 02:55:00 3.1 C 4.79 g/m*3 3.1 C 3.2 km/h
37 17-04-2022 03:00:00 3.1 C 4.85 g/m*3 3.1 C 0 km/h
38 17-04-2022 03:05:00 3 C 4.82 g/m*3 3 C 0 km/h
39 17-04-2022 03:10:00 2.9 C 4.78 g/m*3 2.9 C 0 km/h
40 17-04-2022 03:15:00 2.9 C 4.78 g/m*3 2.9 C 0 km/h
41 17-04-2022 03:20:00 2.8 C 4.75 g/m*3 2.8 C 0 km/h
42 17-04-2022 03:25:00 2.7 C 4.78 g/m*3 2.7 C 0 km/h
43 17-04-2022 03:30:00 2.7 C 4.78 g/m*3 2.7 C 0 km/h
44 17-04-2022 03:35:00 2.6 C 4.75 g/m*3 2.6 C 0 km/h
45 17-04-2022 03:40:00 2.6 C 4.8 g/m*3 2.6 C 0 km/h
46 17-04-2022 03:45:00 2.5 C 4.77 g/m*3 2.5 C 0 km/h
47 17-04-2022 03:50:00 2.6 C 4.8 g/m*3 2.6 C 0 km/h
48 17-04-2022 03:55:00 2.6 C 4.8 g/m*3 2.6 C 0 km/h
49 17-04-2022 04:00:00 2.5 C 4.77 g/m*3 2.5 C 0 km/h
50 17-04-2022 04:05:00 2.5 C 4.77 g/m*3 2.5 C 0 km/h
Sensor: Nr:Datum:Temp:Abs-Feuchte:Windchill:Wind:
Aussen-T/F 51 17-04-2022 04:10:00 2.4 C 4.74 g/m*3 2.4 C 3.2 km/h
52 17-04-2022 04:15:00 2.4 C 4.74 g/m*3 2.4 C 0 km/h
53 17-04-2022 04:20:00 2.4 C 4.74 g/m*3 2.4 C 0 km/h
54 17-04-2022 04:25:00 2.3 C 4.71 g/m*3 2.3 C 0 km/h
55 17-04-2022 04:30:00 2.3 C 4.71 g/m*3 2.3 C 3.2 km/h
56 17-04-2022 04:35:00 2.3 C 4.71 g/m*3 2.3 C 0 km/h
57 17-04-2022 04:40:00 2.3 C 4.71 g/m*3 2.3 C 0 km/h
58 17-04-2022 04:45:00 2.3 C 4.71 g/m*3 2.3 C 0 km/h
59 17-04-2022 04:50:00 2.3 C 4.71 g/m*3 2.3 C 0 km/h
60 17-04-2022 04:55:00 2.2 C 4.68 g/m*3 2.2 C 0 km/h
61 17-04-2022 05:00:00 2.1 C 4.64 g/m*3 2.1 C 0 km/h
62 17-04-2022 05:05:00 2 C 4.61 g/m*3 2 C 0 km/h
63 17-04-2022 05:10:00 1.9 C 4.58 g/m*3 1.9 C 0 km/h
64 17-04-2022 05:15:00 1.9 C 4.64 g/m*3 1.9 C 0 km/h
65 17-04-2022 05:20:00 1.9 C 4.64 g/m*3 1.9 C 0 km/h
66 17-04-2022 05:25:00 1.8 C 4.6 g/m*3 1.8 C 0 km/h
67 17-04-2022 05:30:00 1.8 C 4.6 g/m*3 1.8 C 0 km/h
68 17-04-2022 05:35:00 1.7 C 4.57 g/m*3 1.7 C 0 km/h
69 17-04-2022 05:40:00 1.7 C 4.63 g/m*3 1.7 C 0 km/h
70 17-04-2022 05:45:00 1.6 C 4.6 g/m*3 1.6 C 0 km/h
71 17-04-2022 05:50:00 1.6 C 4.6 g/m*3 1.6 C 0 km/h
72 17-04-2022 05:55:00 1.6 C 4.6 g/m*3 1.6 C 0 km/h
73 17-04-2022 06:00:00 1.5 C 4.62 g/m*3 1.5 C 0 km/h
74 17-04-2022 06:05:00 1.5 C 4.62 g/m*3 1.5 C 0 km/h
75 17-04-2022 06:10:00 1.4 C 4.59 g/m*3 1.4 C 0 km/h
Sensor: Nr:Datum:Temp:Abs-Feuchte:Windchill:Wind:
Aussen-T/F 76 17-04-2022 06:15:00 1.4 C 4.59 g/m*3 1.4 C 0 km/h
77 17-04-2022 06:20:00 1.3 C 4.56 g/m*3 1.3 C 0 km/h
78 17-04-2022 06:25:00 1.2 C 4.53 g/m*3 1.2 C 0 km/h
79 17-04-2022 06:30:00 1.2 C 4.53 g/m*3 1.2 C 0 km/h
80 17-04-2022 06:35:00 1.1 C 4.55 g/m*3 1.1 C 0 km/h
81 17-04-2022 06:40:00 1.1 C 4.55 g/m*3 1.1 C 0 km/h
82 17-04-2022 06:45:00 1.1 C 4.55 g/m*3 1.1 C 0 km/h
83 17-04-2022 06:50:00 1.1 C 4.55 g/m*3 1.1 C 0 km/h
84 17-04-2022 06:55:00 1.1 C 4.55 g/m*3 1.1 C 0 km/h
85 17-04-2022 07:00:00 1 C 4.52 g/m*3 1 C 0 km/h
86 17-04-2022 07:05:00 0.9 C 4.48 g/m*3 0.9 C 0 km/h
87 17-04-2022 07:10:00 0.9 C 4.48 g/m*3 0.9 C 0 km/h
88 17-04-2022 07:15:00 0.9 C 4.54 g/m*3 0.9 C 0 km/h
89 17-04-2022 07:20:00 0.8 C 4.51 g/m*3 0.8 C 0 km/h
90 17-04-2022 07:25:00 0.8 C 4.51 g/m*3 0.8 C 0 km/h
91 17-04-2022 07:30:00 0.8 C 4.51 g/m*3 0.8 C 0 km/h
92 17-04-2022 07:35:00 0.8 C 4.51 g/m*3 0.8 C 0 km/h
93 17-04-2022 07:40:00 0.9 C 4.59 g/m*3 0.9 C 0 km/h
94 17-04-2022 07:45:00 0.9 C 4.59 g/m*3 0.9 C 0 km/h
95 17-04-2022 07:50:00 0.9 C 4.59 g/m*3 0.9 C 0 km/h
96 17-04-2022 07:55:00 1 C 4.62 g/m*3 1 C 0 km/h
97 17-04-2022 08:00:00 1 C 4.62 g/m*3 1 C 0 km/h
98 17-04-2022 08:05:00 1.1 C 4.65 g/m*3 1.1 C 0 km/h
99 17-04-2022 08:10:00 1.2 C 4.68 g/m*3 1.2 C 0 km/h
100 17-04-2022 08:15:00 1.2 C 4.74 g/m*3 1.2 C 0 km/h
Sensor: Nr:Datum:Temp:Abs-Feuchte:Windchill:Wind:
Aussen-T/F 101 17-04-2022 08:20:00 1.3 C 4.77 g/m*3 1.3 C 0 km/h
102 17-04-2022 08:25:00 1.3 C 4.72 g/m*3 1.3 C 1.6 km/h
103 17-04-2022 08:30:00 1.4 C 4.8 g/m*3 1.4 C 0 km/h
104 17-04-2022 08:35:00 1.5 C 4.83 g/m*3 1.5 C 0 km/h
105 17-04-2022 08:40:00 1.6 C 4.87 g/m*3 1.6 C 0 km/h
106 17-04-2022 08:45:00 1.7 C 4.9 g/m*3 1.7 C 1.6 km/h
107 17-04-2022 08:50:00 1.7 C 4.9 g/m*3 1.7 C 0 km/h
108 17-04-2022 08:55:00 1.8 C 4.93 g/m*3 1.8 C 1.6 km/h
109 17-04-2022 09:00:00 1.9 C 4.97 g/m*3 1.9 C 0 km/h
110 17-04-2022 09:05:00 2.1 C 5.04 g/m*3 2.1 C 0 km/h
111 17-04-2022 09:10:00 2.2 C 5.07 g/m*3 2.2 C 0 km/h
112 17-04-2022 09:15:00 2.3 C 5.1 g/m*3 2.3 C 1.6 km/h
113 17-04-2022 09:20:00 2.4 C 5.14 g/m*3 2.4 C 1.6 km/h
114 17-04-2022 09:25:00 2.6 C 5.21 g/m*3 2.6 C 1.6 km/h
115 17-04-2022 09:30:00 2.7 C 5.24 g/m*3 2.7 C 0 km/h
116 17-04-2022 09:35:00 2.9 C 5.32 g/m*3 2.9 C 1.6 km/h
117 17-04-2022 09:40:00 3.1 C 5.39 g/m*3 3.1 C 1.6 km/h
118 17-04-2022 09:45:00 3.2 C 5.42 g/m*3 3.2 C 1.6 km/h
119 17-04-2022 09:50:00 3.4 C 5.5 g/m*3 3.4 C 1.6 km/h
120 17-04-2022 09:55:00 3.6 C 5.57 g/m*3 3.6 C 0 km/h
121 17-04-2022 10:00:00 3.8 C 5.65 g/m*3 3.8 C 0 km/h
122 17-04-2022 10:05:00 4 C 5.72 g/m*3 4 C 0 km/h
123 17-04-2022 10:10:00 4.3 C 5.77 g/m*3 4.3 C 0 km/h
124 17-04-2022 10:15:00 4.6 C 5.89 g/m*3 4.6 C 0 km/h
125 17-04-2022 10:20:00 4.9 C 5.94 g/m*3 4.9 C 1.6 km/h
Sensor: Nr:Datum:Temp:Abs-Feuchte:Windchill:Wind:
Aussen-T/F 126 17-04-2022 10:25:00 5.4 C 6 g/m*3 5.4 C 3.2 km/h
127 17-04-2022 10:30:00 5.9 C 6.06 g/m*3 5.9 C 4.8 km/h
128 17-04-2022 10:35:00 6.5 C 6 g/m*3 6.5 C 4.8 km/h
129 17-04-2022 10:40:00 7.2 C 5.89 g/m*3 7.2 C 3.2 km/h
130 17-04-2022 10:45:00 7.8 C 6.12 g/m*3 7.8 C 0 km/h
131 17-04-2022 10:50:00 8.4 C 5.94 g/m*3 7.52 C 6.4 km/h
132 17-04-2022 10:55:00 9.3 C 5.75 g/m*3 7.33 C 12.9 km/h
133 17-04-2022 11:00:00 10.3 C 5.55 g/m*3 8.55 C 12.9 km/h
134 17-04-2022 11:05:00 10.8 C 5.63 g/m*3 10.8 C 1.6 km/h
135 17-04-2022 11:10:00 11.3 C 5.81 g/m*3 11.3 C 4.8 km/h
136 17-04-2022 11:15:00 11.8 C 5.58 g/m*3 11.8 C 4.8 km/h
137 17-04-2022 11:20:00 12.2 C 5.61 g/m*3 12.2 C 9.7 km/h
138 17-04-2022 11:25:00 12.6 C 5.86 g/m*3 12.6 C 9.7 km/h
139 17-04-2022 11:30:00 12.7 C 5.45 g/m*3 12.7 C 12.9 km/h
140 17-04-2022 11:35:00 12.9 C 5.64 g/m*3 12.9 C 8.1 km/h
141 17-04-2022 11:40:00 13.1 C 5.71 g/m*3 13.1 C 16.1 km/h
142 17-04-2022 11:45:00 13.2 C 5.63 g/m*3 13.2 C 11.3 km/h
143 17-04-2022 11:50:00 13.3 C 5.43 g/m*3 13.3 C 9.7 km/h
144 17-04-2022 11:55:00 13.4 C 5.46 g/m*3 13.4 C 4.8 km/h
145 17-04-2022 12:00:00 13.6 C 5.41 g/m*3 13.6 C 12.9 km/h
146 17-04-2022 12:05:00 13.7 C 5.45 g/m*3 13.7 C 6.4 km/h
147 17-04-2022 12:10:00 13.9 C 5.39 g/m*3 13.9 C 14.5 km/h
148 17-04-2022 12:15:00 14 C 5.43 g/m*3 14 C 8.1 km/h
149 17-04-2022 12:20:00 14.2 C 5.49 g/m*3 14.2 C 3.2 km/h
150 17-04-2022 12:25:00 14.6 C 5.51 g/m*3 14.6 C 12.9 km/h
Sensor: Nr:Datum:Temp:Abs-Feuchte:Windchill:Wind:
Aussen-T/F 151 17-04-2022 12:30:00 14.6 C 5.38 g/m*3 14.6 C 12.9 km/h
152 17-04-2022 12:35:00 14.7 C 5.04 g/m*3 14.7 C 9.7 km/h
153 17-04-2022 12:40:00 14.8 C 5.19 g/m*3 14.8 C 12.9 km/h
154 17-04-2022 12:45:00 14.9 C 5.23 g/m*3 14.9 C 14.5 km/h
155 17-04-2022 12:50:00 14.8 C 5.19 g/m*3 14.8 C 16.1 km/h
156 17-04-2022 12:55:00 14.9 C 5.35 g/m*3 14.9 C 8.1 km/h
157 17-04-2022 13:00:00 15.1 C 5.42 g/m*3 15.1 C 9.7 km/h
158 17-04-2022 13:05:00 15.3 C 5.48 g/m*3 15.3 C 12.9 km/h
159 17-04-2022 13:10:00 15.4 C 4.99 g/m*3 15.4 C 12.9 km/h
160 17-04-2022 13:15:00 15.4 C 4.99 g/m*3 15.4 C 16.1 km/h
161 17-04-2022 13:20:00 15.3 C 4.96 g/m*3 15.3 C 16.1 km/h
162 17-04-2022 13:25:00 15.6 C 4.92 g/m*3 15.6 C 6.4 km/h
163 17-04-2022 13:30:00 15.9 C 4.74 g/m*3 15.9 C 11.3 km/h
164 17-04-2022 13:35:00 16.2 C 4.55 g/m*3 16.2 C 11.3 km/h
165 17-04-2022 13:40:00 16.2 C 4.55 g/m*3 16.2 C 11.3 km/h
166 17-04-2022 13:45:00 16.3 C 4.58 g/m*3 16.3 C 14.5 km/h
167 17-04-2022 13:50:00 16.2 C 4.55 g/m*3 16.2 C 16.1 km/h
168 17-04-2022 13:55:00 16.1 C 4.8 g/m*3 16.1 C 12.9 km/h
169 17-04-2022 14:00:00 16.2 C 4.55 g/m*3 16.2 C 9.7 km/h
170 17-04-2022 14:05:00 16.4 C 4.75 g/m*3 16.4 C 6.4 km/h
171 17-04-2022 14:10:00 16.8 C 5.15 g/m*3 16.8 C 6.4 km/h
172 17-04-2022 14:15:00 17 C 4.63 g/m*3 17 C 9.7 km/h
173 17-04-2022 14:20:00 17.2 C 4.98 g/m*3 17.2 C 8.1 km/h
174 17-04-2022 14:25:00 17.5 C 4.77 g/m*3 17.5 C 8.1 km/h
175 17-04-2022 14:30:00 17.3 C 4.86 g/m*3 17.3 C 14.5 km/h
Sensor: Nr:Datum:Temp:Abs-Feuchte:Windchill:Wind:
Aussen-T/F 176 17-04-2022 14:35:00 17.3 C 5.01 g/m*3 17.3 C 14.5 km/h
177 17-04-2022 14:40:00 17.3 C 4.86 g/m*3 17.3 C 17.7 km/h
178 17-04-2022 14:45:00 17.2 C 5.13 g/m*3 17.2 C 11.3 km/h
179 17-04-2022 14:50:00 17.2 C 4.98 g/m*3 17.2 C 14.5 km/h
180 17-04-2022 14:55:00 17.3 C 5.01 g/m*3 17.3 C 14.5 km/h
181 17-04-2022 15:00:00 17.5 C 4.77 g/m*3 17.5 C 14.5 km/h
182 17-04-2022 15:05:00 17.6 C 4.95 g/m*3 17.6 C 8.1 km/h
183 17-04-2022 15:10:00 17.8 C 5.01 g/m*3 17.8 C 9.7 km/h
184 17-04-2022 15:15:00 17.8 C 4.71 g/m*3 17.8 C 11.3 km/h
185 17-04-2022 15:20:00 17.8 C 5.16 g/m*3 17.8 C 11.3 km/h
186 17-04-2022 15:25:00 17.9 C 4.58 g/m*3 17.9 C 14.5 km/h
187 17-04-2022 15:30:00 17.7 C 4.68 g/m*3 17.7 C 17.7 km/h
188 17-04-2022 15:35:00 17.9 C 4.89 g/m*3 17.9 C 16.1 km/h
189 17-04-2022 15:40:00 18 C 4.76 g/m*3 18 C 14.5 km/h
190 17-04-2022 15:45:00 18.1 C 4.79 g/m*3 18.1 C 12.9 km/h
191 17-04-2022 15:50:00 18.3 C 4.69 g/m*3 18.3 C 11.3 km/h
192 17-04-2022 15:55:00 18.1 C 4.48 g/m*3 18.1 C 17.7 km/h
193 17-04-2022 16:00:00 17.9 C 4.58 g/m*3 17.9 C 16.1 km/h
194 17-04-2022 16:05:00 17.9 C 4.28 g/m*3 17.9 C 16.1 km/h
195 17-04-2022 16:10:00 18.1 C 4.64 g/m*3 18.1 C 16.1 km/h
196 17-04-2022 16:15:00 18.2 C 4.51 g/m*3 18.2 C 16.1 km/h
197 17-04-2022 16:20:00 18.3 C 4.53 g/m*3 18.3 C 16.1 km/h
198 17-04-2022 16:25:00 18.2 C 4.66 g/m*3 18.2 C 19.3 km/h
199 17-04-2022 16:30:00 18.3 C 5 g/m*3 18.3 C 16.1 km/h
200 17-04-2022 16:35:00 18.6 C 4.62 g/m*3 18.6 C 9.7 km/h
Sensor: Nr:Datum:Temp:Abs-Feuchte:Windchill:Wind:
Aussen-T/F 201 17-04-2022 16:40:00 18.6 C 4.46 g/m*3 18.6 C 19.3 km/h
202 17-04-2022 16:45:00 18.1 C 4.48 g/m*3 18.1 C 16.1 km/h
203 17-04-2022 16:50:00 18.2 C 4.66 g/m*3 18.2 C 9.7 km/h
204 17-04-2022 16:55:00 18.5 C 4.9 g/m*3 18.5 C 12.9 km/h
205 17-04-2022 17:00:00 18.8 C 4.67 g/m*3 18.8 C 9.7 km/h
206 17-04-2022 17:05:00 18.6 C 4.62 g/m*3 18.6 C 14.5 km/h
207 17-04-2022 17:10:00 18.7 C 4.64 g/m*3 18.7 C 11.3 km/h
208 17-04-2022 17:15:00 18.9 C 4.86 g/m*3 18.9 C 11.3 km/h
209 17-04-2022 17:20:00 19 C 4.56 g/m*3 19 C 14.5 km/h
210 17-04-2022 17:25:00 19.1 C 4.59 g/m*3 19.1 C 9.7 km/h
211 17-04-2022 17:30:00 19.1 C 4.59 g/m*3 19.1 C 8.1 km/h
212 17-04-2022 17:35:00 18.8 C 4.67 g/m*3 18.8 C 16.1 km/h
213 17-04-2022 17:40:00 18.7 C 4.64 g/m*3 18.7 C 12.9 km/h
214 17-04-2022 17:45:00 18.6 C 4.46 g/m*3 18.6 C 14.5 km/h
215 17-04-2022 17:50:00 18.5 C 4.43 g/m*3 18.5 C 14.5 km/h
216 17-04-2022 17:55:00 18.6 C 4.46 g/m*3 18.6 C 14.5 km/h
217 17-04-2022 18:00:00 18.3 C 4.38 g/m*3 18.3 C 16.1 km/h
218 17-04-2022 18:05:00 18.3 C 4.38 g/m*3 18.3 C 14.5 km/h
219 17-04-2022 18:10:00 18.4 C 4.56 g/m*3 18.4 C 9.7 km/h
220 17-04-2022 18:15:00 18.5 C 4.27 g/m*3 18.5 C 14.5 km/h
221 17-04-2022 18:20:00 18.3 C 4.38 g/m*3 18.3 C 17.7 km/h
222 17-04-2022 18:25:00 18.1 C 4.33 g/m*3 18.1 C 14.5 km/h
223 17-04-2022 18:30:00 17.9 C 4.12 g/m*3 17.9 C 17.7 km/h
224 17-04-2022 18:35:00 18.1 C 4.48 g/m*3 18.1 C 11.3 km/h
225 17-04-2022 18:40:00 18.1 C 4.48 g/m*3 18.1 C 11.3 km/h
Sensor: Nr:Datum:Temp:Abs-Feuchte:Windchill:Wind:
Aussen-T/F 226 17-04-2022 18:45:00 18 C 4.3 g/m*3 18 C 11.3 km/h
227 17-04-2022 18:50:00 17.9 C 4.43 g/m*3 17.9 C 9.7 km/h
228 17-04-2022 18:55:00 17.8 C 4.25 g/m*3 17.8 C 12.9 km/h
229 17-04-2022 19:00:00 17.7 C 4.38 g/m*3 17.7 C 9.7 km/h
230 17-04-2022 19:05:00 17.5 C 4.32 g/m*3 17.5 C 11.3 km/h
231 17-04-2022 19:10:00 17.4 C 4.45 g/m*3 17.4 C 8.1 km/h
232 17-04-2022 19:15:00 17.4 C 4.45 g/m*3 17.4 C 9.7 km/h
233 17-04-2022 19:20:00 17.3 C 4.27 g/m*3 17.3 C 9.7 km/h
234 17-04-2022 19:25:00 17.2 C 4.54 g/m*3 17.2 C 3.2 km/h
235 17-04-2022 19:30:00 17.1 C 4.37 g/m*3 17.1 C 6.4 km/h
236 17-04-2022 19:35:00 16.9 C 4.6 g/m*3 16.9 C 3.2 km/h
237 17-04-2022 19:40:00 16.9 C 4.6 g/m*3 16.9 C 3.2 km/h
238 17-04-2022 19:45:00 16.8 C 4.43 g/m*3 16.8 C 4.8 km/h
239 17-04-2022 19:50:00 16.7 C 4.41 g/m*3 16.7 C 4.8 km/h
240 17-04-2022 19:55:00 16.5 C 4.63 g/m*3 16.5 C 4.8 km/h
241 17-04-2022 20:00:00 16.4 C 5.3 g/m*3 16.4 C 1.6 km/h
242 17-04-2022 20:05:00 16.2 C 5.24 g/m*3 16.2 C 3.2 km/h
243 17-04-2022 20:10:00 15.9 C 5.69 g/m*3 15.9 C 3.2 km/h
244 17-04-2022 20:15:00 15.5 C 5.82 g/m*3 15.5 C 3.2 km/h
245 17-04-2022 20:20:00 14.9 C 5.74 g/m*3 14.9 C 3.2 km/h
246 17-04-2022 20:25:00 14.3 C 5.65 g/m*3 14.3 C 3.2 km/h
247 17-04-2022 20:30:00 13.6 C 5.65 g/m*3 13.6 C 1.6 km/h
248 17-04-2022 20:35:00 12.9 C 5.64 g/m*3 12.9 C 1.6 km/h
249 17-04-2022 20:40:00 12.3 C 5.54 g/m*3 12.3 C 1.6 km/h
250 17-04-2022 20:45:00 11.8 C 5.47 g/m*3 11.8 C 1.6 km/h
Sensor: Nr:Datum:Temp:Abs-Feuchte:Windchill:Wind:
Aussen-T/F 251 17-04-2022 20:50:00 11.3 C 5.41 g/m*3 11.3 C 1.6 km/h
252 17-04-2022 20:55:00 11 C 5.41 g/m*3 11 C 1.6 km/h
253 17-04-2022 21:00:00 10.7 C 5.4 g/m*3 10.7 C 3.2 km/h
254 17-04-2022 21:05:00 10.4 C 5.4 g/m*3 10.4 C 1.6 km/h
255 17-04-2022 21:10:00 10.2 C 5.52 g/m*3 10.2 C 3.2 km/h
256 17-04-2022 21:15:00 10 C 5.45 g/m*3 10 C 3.2 km/h
257 17-04-2022 21:20:00 9.8 C 5.47 g/m*3 9.8 C 3.2 km/h
258 17-04-2022 21:25:00 9.7 C 5.44 g/m*3 9.7 C 3.2 km/h
259 17-04-2022 21:30:00 9.5 C 5.46 g/m*3 9.5 C 3.2 km/h
260 17-04-2022 21:35:00 9.4 C 5.52 g/m*3 9.4 C 3.2 km/h
261 17-04-2022 21:40:00 9.2 C 5.45 g/m*3 9.2 C 3.2 km/h
262 17-04-2022 21:45:00 9.1 C 5.59 g/m*3 9.1 C 1.6 km/h
263 17-04-2022 21:50:00 8.9 C 5.61 g/m*3 8.9 C 1.6 km/h
264 17-04-2022 21:55:00 8.7 C 5.62 g/m*3 8.7 C 1.6 km/h
265 17-04-2022 22:00:00 8.6 C 5.59 g/m*3 8.6 C 0 km/h
266 17-04-2022 22:05:00 8.3 C 5.56 g/m*3 8.3 C 1.6 km/h
267 17-04-2022 22:10:00 8.2 C 5.44 g/m*3 8.2 C 0 km/h
268 17-04-2022 22:15:00 8.1 C 5.57 g/m*3 8.1 C 0 km/h
269 17-04-2022 22:20:00 7.9 C 5.59 g/m*3 7.9 C 0 km/h
270 17-04-2022 22:25:00 7.8 C 5.55 g/m*3 7.8 C 1.6 km/h
271 17-04-2022 22:30:00 7.7 C 5.68 g/m*3 7.7 C 1.6 km/h
272 17-04-2022 22:35:00 7.5 C 5.52 g/m*3 7.5 C 1.6 km/h
273 17-04-2022 22:40:00 7.4 C 5.41 g/m*3 7.4 C 1.6 km/h
274 17-04-2022 22:45:00 7.3 C 5.45 g/m*3 7.3 C 0 km/h
275 17-04-2022 22:50:00 7.2 C 5.42 g/m*3 7.2 C 0 km/h
Sensor: Nr:Datum:Temp:Abs-Feuchte:Windchill:Wind:
Aussen-T/F 276 17-04-2022 22:55:00 7 C 5.42 g/m*3 7 C 0 km/h
277 17-04-2022 23:00:00 6.9 C 5.39 g/m*3 6.9 C 0 km/h
278 17-04-2022 23:05:00 6.7 C 5.32 g/m*3 6.7 C 0 km/h
279 17-04-2022 23:10:00 6.6 C 5.36 g/m*3 6.6 C 0 km/h
280 17-04-2022 23:15:00 6.4 C 5.36 g/m*3 6.4 C 0 km/h
281 17-04-2022 23:20:00 6.3 C 5.33 g/m*3 6.3 C 0 km/h
282 17-04-2022 23:25:00 6.3 C 5.4 g/m*3 6.3 C 0 km/h
283 17-04-2022 23:30:00 6.2 C 5.37 g/m*3 6.2 C 0 km/h
284 17-04-2022 23:35:00 6.1 C 5.41 g/m*3 6.1 C 0 km/h
285 17-04-2022 23:40:00 6 C 5.37 g/m*3 6 C 0 km/h
286 17-04-2022 23:45:00 5.9 C 5.34 g/m*3 5.9 C 0 km/h
287 17-04-2022 23:50:00 5.8 C 5.3 g/m*3 5.8 C 0 km/h
288 17-04-2022 23:55:00 5.7 C 5.34 g/m*3 5.7 C 0 km/h

Legende:
   Min
   Max


Maximal/Minimal-Werte vom 17.04.2022 - 17.04.2022

Sensor Min Max Avg
Temp
(Aussen-T/F)
0.8 °C
17-04-2022  07:20:00
19.1 °C
17-04-2022  17:25:00
9.22 °C
Abs-Feuchte
(Aussen-T/F)
4.12 g/m*3
17-04-2022  18:30:00
6.12 g/m*3
17-04-2022  10:45:00
4.95 g/m*3
Windchill
(Aussen-T/F)
0.8 C
17-04-2022  07:20:00
19.1 C
17-04-2022  17:25:00
9.14 C

Die Daten stammen von einer Davis Vantage Pro 2 Wetter-Station und werden unter Linux mit der Software wview2wettercgi und aufbereitet. Alle Angaben erfolgen ohne Gewähr für ihre Vollständigkeit oder Richtigkeit.
Kontakt: Rainer Krienke krienke@uni-koblenz.de . Meine Webseiten an der Uni Koblenz oder privat.
Version: $Revision: 0.78 $